Terminal Aerodrome Forecast
Issued by NWS Cleveland, OH

Home | Current Version | Previous Version | Graphics & Text | Print | Product List | Glossary Off
Versions: 1 2 3 4 5 6 7 8 9 10 11 12 13 14 15 16 17 18

000
FTUS41 KCLE 312200 AAB
TAFMFD
TAF AMD
KMFD 312227Z 3122/0118 21010KT P6SM VCSH SCT020 OVC035
      TEMPO 3122/0102 2SM -SHRA OVC020
     FM010400 20004KT P6SM OVC020
     FM010800 20005KT 2SM BR OVC008
     FM011600 21012G18KT 5SM BR OVC012=

USA.gov is the U.S. government's official web portal to all federal, state and local government web resources and services.